Time;durP1;ratioP1;P1;durP2;ratioP2;P2;SDS_P1;SDS_P2;PMS_P1;PMS_P2;Temp;Humidity;BMP_temperature;BMP_pressure;BME280_temperature;BME280_humidity;BME280_pressure;Samples;Min_cycle;Max_cycle;Signal;HPM_P1;HPM_P2
2023/06/24 00:02:01;;;;;;;8.18;2.50;;;;;;;;;;5011807;28;20034;-71
2023/06/24 00:04:26;;;;;;;6.05;2.65;;;;;;;;;;5015281;28;20048;-71
2023/06/24 00:06:52;;;;;;;5.05;2.53;;;;;;;;;;5016786;28;20113;-71
2023/06/24 00:09:18;;;;;;;5.93;2.25;;;;;;;;;;5016337;28;20116;-72
2023/06/24 00:11:43;;;;;;;4.68;2.53;;;;;;;;;;5012832;28;20030;-71
2023/06/24 00:14:08;;;;;;;6.53;2.75;;;;;;;;;;5015011;28;20451;-71
2023/06/24 00:16:33;;;;;;;4.00;2.55;;;;;;;;;;5016668;28;20468;-71
2023/06/24 00:19:00;;;;;;;7.10;2.70;;;;;;;;;;5016795;28;20018;-71
2023/06/24 00:21:29;;;;;;;5.32;2.65;;;;;;;;;;5016893;28;20046;-72
2023/06/24 00:23:56;;;;;;;8.93;2.70;;;;;;;;;;5015093;28;20091;-71
2023/06/24 00:26:21;;;;;;;6.97;2.53;;;;;;;;;;5014944;28;20026;-71
2023/06/24 00:28:46;;;;;;;14.30;3.00;;;;;;;;;;5016586;28;20033;-71
2023/06/24 00:31:12;;;;;;;5.50;2.33;;;;;;;;;;5016306;28;20040;-71
2023/06/24 00:33:37;;;;;;;11.50;3.08;;;;;;;;;;5016463;28;20116;-71
2023/06/24 00:36:03;;;;;;;9.85;2.53;;;;;;;;;;5016074;28;20394;-71
2023/06/24 00:38:32;;;;;;;7.07;2.53;;;;;;;;;;5015988;28;20060;-72
2023/06/24 00:40:58;;;;;;;7.00;2.97;;;;;;;;;;5016268;28;20037;-71
2023/06/24 00:43:23;;;;;;;8.27;2.97;;;;;;;;;;5015910;28;20125;-71
2023/06/24 00:45:49;;;;;;;6.72;2.92;;;;;;;;;;5016226;28;20045;-71
2023/06/24 00:48:14;;;;;;;9.35;3.13;;;;;;;;;;5014726;28;20072;-71
2023/06/24 00:50:42;;;;;;;6.45;2.88;;;;;;;;;;5015530;28;20033;-71
2023/06/24 00:53:07;;;;;;;7.97;3.08;;;;;;;;;;5015779;28;20420;-71
2023/06/24 00:55:32;;;;;;;5.22;2.95;;;;;;;;;;5015974;28;20030;-71
2023/06/24 00:57:59;;;;;;;6.53;2.95;;;;;;;;;;5015704;28;20398;-71
2023/06/24 01:00:26;;;;;;;7.05;2.65;;;;;;;;;;5015668;28;20080;-71
2023/06/24 01:02:51;;;;;;;6.10;3.15;;;;;;;;;;5010839;28;20041;-70
2023/06/24 01:05:17;;;;;;;8.13;3.00;;;;;;;;;;5015687;28;20029;-71
2023/06/24 01:07:43;;;;;;;6.13;2.90;;;;;;;;;;5015436;28;20123;-71
2023/06/24 01:10:09;;;;;;;9.77;3.47;;;;;;;;;;5015698;28;20044;-71
2023/06/24 01:12:40;;;;;;;7.30;3.60;;;;;;;;;;5012975;28;20033;-71
2023/06/24 01:15:09;;;;;;;6.50;3.15;;;;;;;;;;5013007;28;20494;-71
2023/06/24 01:17:38;;;;;;;6.93;3.30;;;;;;;;;;5014476;28;20033;-70
2023/06/24 01:20:10;;;;;;;6.32;2.90;;;;;;;;;;5014406;28;20120;-71
2023/06/24 01:23:06;;;;;;;8.75;3.50;;;;;;;;;;4994057;28;20383;-70
2023/06/24 01:25:52;;;;;;;6.40;3.22;;;;;;;;;;5013889;28;20572;-71
2023/06/24 01:28:23;;;;;;;10.15;3.17;;;;;;;;;;5013852;28;20049;-70
2023/06/24 01:31:07;;;;;;;12.18;3.20;;;;;;;;;;5015416;28;20052;-70
2023/06/24 01:33:39;;;;;;;6.00;2.80;;;;;;;;;;5014971;28;20046;-70
2023/06/24 01:36:07;;;;;;;9.45;2.80;;;;;;;;;;5013914;28;20042;-71
2023/06/24 01:39:03;;;;;;;5.50;2.90;;;;;;;;;;5013640;28;20075;-71
2023/06/24 01:41:34;;;;;;;7.43;3.17;;;;;;;;;;5009241;28;20054;-70
2023/06/24 01:44:00;;;;;;;5.55;3.22;;;;;;;;;;5013858;28;20042;-71
2023/06/24 01:46:28;;;;;;;5.13;2.90;;;;;;;;;;5013872;28;20080;-71
2023/06/24 01:48:55;;;;;;;10.38;3.35;;;;;;;;;;5013472;28;20041;-70
2023/06/24 01:51:22;;;;;;;7.00;2.85;;;;;;;;;;5013785;28;20088;-70
2023/06/24 01:54:13;;;;;;;6.30;2.75;;;;;;;;;;5013166;28;20502;-70
2023/06/24 01:56:39;;;;;;;9.70;3.03;;;;;;;;;;5011446;28;20037;-70
2023/06/24 01:59:05;;;;;;;6.15;3.20;;;;;;;;;;5014385;28;20057;-70
2023/06/24 02:01:32;;;;;;;6.43;2.85;;;;;;;;;;5013493;28;20038;-70
2023/06/24 02:03:59;;;;;;;5.43;2.75;;;;;;;;;;5013110;28;20441;-70
2023/06/24 02:06:26;;;;;;;8.93;2.70;;;;;;;;;;5013413;28;20038;-70
2023/06/24 02:08:53;;;;;;;7.38;2.55;;;;;;;;;;5010553;28;20184;-71
2023/06/24 02:11:19;;;;;;;5.75;3.13;;;;;;;;;;5013442;28;20382;-71
2023/06/24 02:13:44;;;;;;;10.35;3.03;;;;;;;;;;5013964;28;20048;-71
2023/06/24 02:16:10;;;;;;;10.95;3.20;;;;;;;;;;5013303;28;20053;-71
2023/06/24 02:18:38;;;;;;;7.22;3.13;;;;;;;;;;5012453;28;20053;-71
2023/06/24 02:21:04;;;;;;;7.78;3.47;;;;;;;;;;5014140;28;20091;-71
2023/06/24 02:23:30;;;;;;;5.80;2.63;;;;;;;;;;5012739;28;20117;-72
2023/06/24 02:25:55;;;;;;;9.82;3.05;;;;;;;;;;5012976;28;20558;-71
2023/06/24 02:28:21;;;;;;;5.45;2.92;;;;;;;;;;5014019;28;20037;-71
2023/06/24 02:30:47;;;;;;;7.32;3.35;;;;;;;;;;5013185;28;20386;-70
2023/06/24 02:33:12;;;;;;;5.32;2.78;;;;;;;;;;5012716;28;20115;-71
2023/06/24 02:35:38;;;;;;;7.75;3.15;;;;;;;;;;5004713;28;20041;-71
2023/06/24 02:38:03;;;;;;;6.82;3.10;;;;;;;;;;5013875;28;20117;-71
2023/06/24 02:40:29;;;;;;;9.15;3.05;;;;;;;;;;5012943;28;20392;-71
2023/06/24 02:42:54;;;;;;;9.45;3.10;;;;;;;;;;5014142;28;20099;-71
2023/06/24 02:45:20;;;;;;;8.57;3.13;;;;;;;;;;5012161;28;20026;-71
2023/06/24 02:47:47;;;;;;;6.72;2.95;;;;;;;;;;5003225;28;20048;-71
2023/06/24 02:50:12;;;;;;;6.88;3.05;;;;;;;;;;5011939;28;20120;-71
2023/06/24 02:52:38;;;;;;;8.55;3.47;;;;;;;;;;5012270;28;20065;-71
2023/06/24 02:55:05;;;;;;;6.68;3.10;;;;;;;;;;5008534;28;20529;-71
2023/06/24 02:57:31;;;;;;;6.63;3.30;;;;;;;;;;5012335;28;20045;-71
2023/06/24 02:59:57;;;;;;;6.88;3.15;;;;;;;;;;5012338;28;20057;-71
2023/06/24 03:02:23;;;;;;;4.68;2.78;;;;;;;;;;5012454;28;20470;-71
2023/06/24 03:04:50;;;;;;;7.18;3.53;;;;;;;;;;5012644;28;20050;-71
2023/06/24 03:07:20;;;;;;;4.47;2.83;;;;;;;;;;5012052;28;20029;-71
2023/06/24 03:09:46;;;;;;;5.72;3.35;;;;;;;;;;5010508;28;20037;-71
2023/06/24 03:12:11;;;;;;;6.03;3.13;;;;;;;;;;5013179;28;20050;-71
2023/06/24 03:14:36;;;;;;;3.90;2.85;;;;;;;;;;5010033;28;20061;-71
2023/06/24 03:17:02;;;;;;;8.77;3.20;;;;;;;;;;5013550;28;20042;-71
2023/06/24 03:19:27;;;;;;;7.07;3.40;;;;;;;;;;5011273;28;20061;-71
2023/06/24 03:21:53;;;;;;;9.30;3.30;;;;;;;;;;5013319;28;20041;-71
2023/06/24 03:24:18;;;;;;;5.30;2.90;;;;;;;;;;5004921;28;20044;-71
2023/06/24 03:26:43;;;;;;;7.90;2.92;;;;;;;;;;5013437;28;20050;-71
2023/06/24 03:29:09;;;;;;;8.18;3.03;;;;;;;;;;5013301;28;20029;-70
2023/06/24 03:31:34;;;;;;;5.95;2.67;;;;;;;;;;5013260;28;20470;-70
2023/06/24 03:33:59;;;;;;;6.25;3.03;;;;;;;;;;5012768;28;20433;-71
2023/06/24 03:36:25;;;;;;;5.55;2.83;;;;;;;;;;5012981;28;20405;-70
2023/06/24 03:38:50;;;;;;;9.57;3.10;;;;;;;;;;5014596;28;20092;-71
2023/06/24 03:41:16;;;;;;;7.13;3.05;;;;;;;;;;5017108;28;20042;-70
2023/06/24 03:43:41;;;;;;;6.43;3.28;;;;;;;;;;5017436;28;20033;-70
2023/06/24 03:46:07;;;;;;;14.52;3.95;;;;;;;;;;5017076;28;20048;-71
2023/06/24 03:48:33;;;;;;;8.70;3.47;;;;;;;;;;5015496;28;20072;-71
2023/06/24 03:50:58;;;;;;;9.07;3.60;;;;;;;;;;5016463;28;20069;-71
2023/06/24 03:53:23;;;;;;;7.97;3.42;;;;;;;;;;5016636;28;20069;-71
2023/06/24 03:55:49;;;;;;;8.50;3.88;;;;;;;;;;5016923;28;20118;-70
2023/06/24 03:58:16;;;;;;;6.50;3.45;;;;;;;;;;5014118;28;20054;-70
2023/06/24 04:00:43;;;;;;;7.65;3.47;;;;;;;;;;5016828;28;20042;-70
2023/06/24 04:03:09;;;;;;;12.95;3.90;;;;;;;;;;5016813;28;20062;-70
2023/06/24 04:05:34;;;;;;;7.63;3.60;;;;;;;;;;5016730;28;20072;-70
2023/06/24 04:08:00;;;;;;;6.05;3.85;;;;;;;;;;5016460;28;20056;-70
2023/06/24 04:10:25;;;;;;;6.95;3.92;;;;;;;;;;5016932;28;20042;-70
2023/06/24 04:12:51;;;;;;;6.55;3.80;;;;;;;;;;5015372;28;20168;-70
2023/06/24 04:15:16;;;;;;;7.68;3.42;;;;;;;;;;5016573;28;20482;-70
2023/06/24 04:17:41;;;;;;;9.13;3.45;;;;;;;;;;5015503;28;20087;-70
2023/06/24 04:20:10;;;;;;;5.85;3.63;;;;;;;;;;5016676;28;20029;-70
2023/06/24 04:22:37;;;;;;;6.80;3.50;;;;;;;;;;5015911;28;20172;-70
2023/06/24 04:25:02;;;;;;;9.52;3.95;;;;;;;;;;5014392;28;20080;-70
2023/06/24 04:27:28;;;;;;;5.20;3.13;;;;;;;;;;5016890;28;20088;-70
2023/06/24 04:29:53;;;;;;;8.55;3.50;;;;;;;;;;5011408;28;20042;-70
2023/06/24 04:32:18;;;;;;;9.23;3.92;;;;;;;;;;5015166;28;20490;-71
2023/06/24 04:34:44;;;;;;;6.32;3.60;;;;;;;;;;5016525;28;20123;-71
2023/06/24 04:37:09;;;;;;;7.78;3.42;;;;;;;;;;5015925;28;20378;-71
2023/06/24 04:39:34;;;;;;;7.90;3.53;;;;;;;;;;5016280;28;20113;-72
2023/06/24 04:42:00;;;;;;;7.07;3.58;;;;;;;;;;5016344;28;20026;-72
2023/06/24 04:44:25;;;;;;;10.13;4.15;;;;;;;;;;5016128;28;20026;-72
2023/06/24 04:46:52;;;;;;;6.88;3.80;;;;;;;;;;5016019;28;20040;-72
2023/06/24 04:49:17;;;;;;;10.35;3.70;;;;;;;;;;5009005;28;20046;-72
2023/06/24 04:51:43;;;;;;;10.32;3.85;;;;;;;;;;5011039;28;20046;-72
2023/06/24 04:54:08;;;;;;;5.43;3.80;;;;;;;;;;5046949;28;20467;-72
2023/06/24 04:56:34;;;;;;;6.15;3.55;;;;;;;;;;5015830;28;20049;-72
2023/06/24 04:59:00;;;;;;;7.43;3.47;;;;;;;;;;5016050;28;20050;-72
2023/06/24 05:01:25;;;;;;;8.10;3.63;;;;;;;;;;5015554;28;20520;-71
2023/06/24 05:03:51;;;;;;;11.25;3.60;;;;;;;;;;5014702;28;20063;-71
2023/06/24 05:06:16;;;;;;;7.85;3.72;;;;;;;;;;5015544;28;20406;-71
2023/06/24 05:08:41;;;;;;;5.78;3.55;;;;;;;;;;5015285;28;20454;-72
2023/06/24 05:11:07;;;;;;;8.48;3.30;;;;;;;;;;5015041;28;20160;-72
2023/06/24 05:13:32;;;;;;;9.48;3.97;;;;;;;;;;5015487;28;20068;-72
2023/06/24 05:15:57;;;;;;;6.25;3.35;;;;;;;;;;5014799;28;20046;-71
2023/06/24 05:18:23;;;;;;;6.43;3.47;;;;;;;;;;5015760;28;20433;-71
2023/06/24 05:20:48;;;;;;;5.50;3.03;;;;;;;;;;5014790;28;20045;-71
2023/06/24 05:23:13;;;;;;;7.30;3.30;;;;;;;;;;5015034;28;20120;-72
2023/06/24 05:25:39;;;;;;;8.32;3.53;;;;;;;;;;5015265;28;20113;-71
2023/06/24 05:28:04;;;;;;;5.82;3.58;;;;;;;;;;5015321;28;20061;-71
2023/06/24 05:30:29;;;;;;;6.53;3.38;;;;;;;;;;5015345;28;20057;-71
2023/06/24 05:32:55;;;;;;;8.65;2.97;;;;;;;;;;4994544;28;20030;-71
2023/06/24 05:35:20;;;;;;;6.30;3.25;;;;;;;;;;5011649;28;20069;-71
2023/06/24 05:37:45;;;;;;;6.90;2.72;;;;;;;;;;5005369;28;20046;-72
2023/06/24 05:40:12;;;;;;;7.40;3.58;;;;;;;;;;5011992;28;20036;-71
2023/06/24 05:42:38;;;;;;;6.25;3.30;;;;;;;;;;5015081;28;20041;-70
2023/06/24 05:45:03;;;;;;;4.47;2.85;;;;;;;;;;5013929;28;20187;-72
2023/06/24 05:47:29;;;;;;;8.05;3.70;;;;;;;;;;5014869;28;20041;-71
2023/06/24 05:49:54;;;;;;;5.03;3.08;;;;;;;;;;5014689;28;20438;-71
2023/06/24 05:52:19;;;;;;;6.75;3.45;;;;;;;;;;5014266;28;20042;-72
2023/06/24 05:54:45;;;;;;;8.68;3.20;;;;;;;;;;5014113;28;20072;-71
2023/06/24 05:57:10;;;;;;;5.13;3.30;;;;;;;;;;5013546;28;20041;-72
2023/06/24 05:59:36;;;;;;;6.15;2.97;;;;;;;;;;5014278;28;20057;-72
2023/06/24 06:02:01;;;;;;;7.53;3.53;;;;;;;;;;5013461;28;20033;-72
2023/06/24 06:04:27;;;;;;;9.93;3.00;;;;;;;;;;5013538;28;20121;-72
2023/06/24 06:06:53;;;;;;;8.18;3.03;;;;;;;;;;5014257;28;20124;-71
2023/06/24 06:09:18;;;;;;;6.10;3.03;;;;;;;;;;5013547;28;20112;-72
2023/06/24 06:11:43;;;;;;;5.30;2.90;;;;;;;;;;5013979;28;20072;-70
2023/06/24 06:14:09;;;;;;;6.05;3.28;;;;;;;;;;5014051;28;20034;-71
2023/06/24 06:16:34;;;;;;;7.07;3.10;;;;;;;;;;5014575;28;20371;-71
2023/06/24 06:18:59;;;;;;;6.40;2.97;;;;;;;;;;5012953;28;20588;-71
2023/06/24 06:21:25;;;;;;;5.50;2.97;;;;;;;;;;5009370;28;20034;-71
2023/06/24 06:23:50;;;;;;;9.20;2.90;;;;;;;;;;5014359;28;20409;-71
2023/06/24 06:26:15;;;;;;;10.90;3.75;;;;;;;;;;5012097;28;20041;-71
2023/06/24 06:28:41;;;;;;;7.97;3.10;;;;;;;;;;5013849;28;20370;-71
2023/06/24 06:31:06;;;;;;;8.10;3.85;;;;;;;;;;5012041;28;20049;-72
2023/06/24 06:33:31;;;;;;;6.57;2.60;;;;;;;;;;5012352;28;20033;-71
2023/06/24 06:35:57;;;;;;;5.38;3.13;;;;;;;;;;5012607;28;20041;-71
2023/06/24 06:38:22;;;;;;;5.35;2.97;;;;;;;;;;5011886;28;20088;-70
2023/06/24 06:40:47;;;;;;;6.60;3.25;;;;;;;;;;5011184;28;20045;-71
2023/06/24 06:43:13;;;;;;;5.63;2.72;;;;;;;;;;5013287;28;20046;-71
2023/06/24 06:45:38;;;;;;;7.10;3.00;;;;;;;;;;5013974;28;20033;-70
2023/06/24 06:48:07;;;;;;;4.55;2.50;;;;;;;;;;5013831;28;20048;-72
2023/06/24 06:50:33;;;;;;;10.13;3.45;;;;;;;;;;5015020;28;20482;-71
2023/06/24 06:52:58;;;;;;;8.05;2.80;;;;;;;;;;5013609;28;20044;-71
2023/06/24 06:55:24;;;;;;;7.68;2.90;;;;;;;;;;5013776;28;20034;-71
2023/06/24 06:57:49;;;;;;;5.55;2.63;;;;;;;;;;5011284;28;20133;-70
2023/06/24 07:00:14;;;;;;;6.40;2.90;;;;;;;;;;5012596;28;20117;-71
2023/06/24 07:02:40;;;;;;;5.63;2.70;;;;;;;;;;5011924;28;20120;-71
2023/06/24 07:05:06;;;;;;;6.05;3.40;;;;;;;;;;5012479;28;20449;-71
2023/06/24 07:07:32;;;;;;;6.38;2.83;;;;;;;;;;5012879;28;20088;-71
2023/06/24 07:09:57;;;;;;;6.82;3.05;;;;;;;;;;5013348;28;20129;-71
2023/06/24 07:12:23;;;;;;;5.50;2.40;;;;;;;;;;5010097;28;20041;-71
2023/06/24 07:14:49;;;;;;;5.38;3.28;;;;;;;;;;5012514;28;20120;-71
2023/06/24 07:17:15;;;;;;;7.25;3.00;;;;;;;;;;5012816;28;20037;-71
2023/06/24 07:19:40;;;;;;;7.78;2.95;;;;;;;;;;5012952;28;20034;-72
2023/06/24 07:22:05;;;;;;;5.65;2.72;;;;;;;;;;5012286;28;20025;-72
2023/06/24 07:24:31;;;;;;;5.82;2.95;;;;;;;;;;5010428;28;20359;-72
2023/06/24 07:26:56;;;;;;;6.55;2.97;;;;;;;;;;5011493;28;20046;-72
2023/06/24 07:29:21;;;;;;;8.90;2.80;;;;;;;;;;5012997;28;20037;-71
2023/06/24 07:31:47;;;;;;;7.40;2.70;;;;;;;;;;5011117;28;20038;-72
2023/06/24 07:34:12;;;;;;;5.82;2.70;;;;;;;;;;5012543;28;20099;-72
2023/06/24 07:36:37;;;;;;;7.13;2.75;;;;;;;;;;5012600;28;20042;-72
2023/06/24 07:39:03;;;;;;;5.93;2.80;;;;;;;;;;5009199;28;20033;-72
2023/06/24 07:41:28;;;;;;;7.97;3.08;;;;;;;;;;5012329;28;20553;-72
2023/06/24 07:43:54;;;;;;;11.27;3.20;;;;;;;;;;5010684;28;20041;-71
2023/06/24 07:46:20;;;;;;;9.60;2.72;;;;;;;;;;5011136;28;20042;-72
2023/06/24 07:48:45;;;;;;;5.88;2.40;;;;;;;;;;5009945;28;20532;-72
2023/06/24 07:51:10;;;;;;;8.98;2.70;;;;;;;;;;5008369;28;20026;-73
2023/06/24 07:53:36;;;;;;;5.97;2.60;;;;;;;;;;5003940;28;20039;-70
2023/06/24 07:56:01;;;;;;;9.20;2.80;;;;;;;;;;5012447;28;20033;-70
2023/06/24 07:58:27;;;;;;;9.30;3.03;;;;;;;;;;5004510;28;20053;-70
2023/06/24 08:00:52;;;;;;;6.60;2.65;;;;;;;;;;5011860;28;20034;-70
2023/06/24 08:03:17;;;;;;;6.28;2.83;;;;;;;;;;5010376;28;20069;-70
2023/06/24 08:05:43;;;;;;;6.22;2.97;;;;;;;;;;5012479;28;20053;-70
2023/06/24 08:08:09;;;;;;;6.85;2.45;;;;;;;;;;5012172;28;20076;-70
2023/06/24 08:10:35;;;;;;;6.90;2.70;;;;;;;;;;5011681;28;20489;-70
2023/06/24 08:13:00;;;;;;;5.25;2.88;;;;;;;;;;5013077;28;20087;-70
2023/06/24 08:15:26;;;;;;;6.68;2.83;;;;;;;;;;5012592;28;20030;-70
2023/06/24 08:17:52;;;;;;;5.15;2.70;;;;;;;;;;5013040;28;20046;-70
2023/06/24 08:20:17;;;;;;;7.60;2.60;;;;;;;;;;5012292;28;20065;-70
2023/06/24 08:22:43;;;;;;;4.30;2.83;;;;;;;;;;5012653;28;20061;-70
2023/06/24 08:25:08;;;;;;;10.00;2.95;;;;;;;;;;5012404;28;20052;-70
2023/06/24 08:27:33;;;;;;;10.80;2.75;;;;;;;;;;5015246;28;20121;-70
2023/06/24 08:29:59;;;;;;;6.60;2.95;;;;;;;;;;5012781;28;20046;-70
2023/06/24 08:32:24;;;;;;;7.97;2.85;;;;;;;;;;5016015;28;20046;-70
2023/06/24 08:34:50;;;;;;;8.63;2.50;;;;;;;;;;5015616;28;20057;-70
2023/06/24 08:37:15;;;;;;;11.27;3.30;;;;;;;;;;5014400;28;20041;-70
2023/06/24 08:39:41;;;;;;;5.40;2.55;;;;;;;;;;5001158;28;20397;-70
2023/06/24 08:42:06;;;;;;;6.47;2.50;;;;;;;;;;5014618;28;20042;-70
2023/06/24 08:44:32;;;;;;;7.43;2.88;;;;;;;;;;5013040;28;20171;-70
2023/06/24 08:46:57;;;;;;;4.72;2.40;;;;;;;;;;5013082;28;20484;-70
2023/06/24 08:49:23;;;;;;;7.10;2.90;;;;;;;;;;5012168;28;20026;-71
2023/06/24 08:51:55;;;;;;;4.60;2.42;;;;;;;;;;5012874;28;20037;-70
2023/06/24 08:54:21;;;;;;;9.57;2.78;;;;;;;;;;5013714;28;20049;-70
2023/06/24 08:56:46;;;;;;;6.32;2.45;;;;;;;;;;5012974;28;20409;-70
2023/06/24 08:59:12;;;;;;;5.47;2.90;;;;;;;;;;5013717;28;20061;-70
2023/06/24 09:01:37;;;;;;;5.15;2.25;;;;;;;;;;5013929;28;20034;-70
2023/06/24 09:04:03;;;;;;;6.20;2.58;;;;;;;;;;5014466;28;20029;-70
2023/06/24 09:06:30;;;;;;;5.88;2.53;;;;;;;;;;5013755;28;20048;-70
2023/06/24 09:08:56;;;;;;;4.47;2.08;;;;;;;;;;5013594;28;20038;-70
2023/06/24 09:11:28;;;;;;;5.85;2.00;;;;;;;;;;5014248;28;20114;-70
2023/06/24 09:13:57;;;;;;;4.78;2.20;;;;;;;;;;5014106;28;20033;-70
2023/06/24 09:16:23;;;;;;;5.38;2.38;;;;;;;;;;5014111;28;20049;-70
2023/06/24 09:18:49;;;;;;;3.65;1.88;;;;;;;;;;5014776;28;20398;-70
2023/06/24 09:21:28;;;;;;;4.35;2.10;;;;;;;;;;5015221;28;20042;-70
2023/06/24 09:23:54;;;;;;;4.75;2.05;;;;;;;;;;5014584;28;20549;-70
2023/06/24 09:26:23;;;;;;;5.00;2.00;;;;;;;;;;5015093;28;20109;-70
2023/06/24 09:28:49;;;;;;;3.80;1.88;;;;;;;;;;5013067;28;20433;-70
2023/06/24 09:31:15;;;;;;;4.75;1.98;;;;;;;;;;5014804;28;20125;-70
2023/06/24 09:33:40;;;;;;;5.95;2.30;;;;;;;;;;5015133;28;20121;-70
2023/06/24 09:36:05;;;;;;;3.80;2.22;;;;;;;;;;5013069;28;20085;-70
2023/06/24 09:38:36;;;;;;;4.32;2.15;;;;;;;;;;5014901;28;20029;-70
2023/06/24 09:41:08;;;;;;;6.53;2.08;;;;;;;;;;5006893;28;20494;-70
2023/06/24 09:43:35;;;;;;;5.82;2.47;;;;;;;;;;5003334;28;20048;-71
2023/06/24 09:46:02;;;;;;;4.30;2.30;;;;;;;;;;5015239;28;20034;-71
2023/06/24 09:48:27;;;;;;;7.00;2.45;;;;;;;;;;5013702;28;20044;-71
2023/06/24 09:50:54;;;;;;;4.38;2.47;;;;;;;;;;5014519;28;20037;-71
2023/06/24 09:53:20;;;;;;;5.68;2.42;;;;;;;;;;5013859;28;20406;-72
2023/06/24 09:55:46;;;;;;;5.57;2.10;;;;;;;;;;5013468;28;20042;-70
2023/06/24 09:58:13;;;;;;;4.05;2.30;;;;;;;;;;5013149;28;20074;-70
2023/06/24 10:00:38;;;;;;;4.75;2.10;;;;;;;;;;5013210;28;20052;-70
2023/06/24 10:03:04;;;;;;;7.90;2.63;;;;;;;;;;5013597;28;20046;-70
2023/06/24 10:05:29;;;;;;;3.45;2.20;;;;;;;;;;5002357;28;20471;-70
2023/06/24 10:07:54;;;;;;;4.95;2.33;;;;;;;;;;5014413;28;20037;-70
2023/06/24 10:10:20;;;;;;;4.22;2.08;;;;;;;;;;5014315;28;20548;-70
2023/06/24 10:12:45;;;;;;;5.40;2.08;;;;;;;;;;5014779;28;20045;-70
2023/06/24 10:15:11;;;;;;;5.82;2.33;;;;;;;;;;5014653;28;20041;-70
2023/06/24 10:17:37;;;;;;;3.22;1.90;;;;;;;;;;5014315;28;20041;-72
2023/06/24 10:20:06;;;;;;;5.15;2.35;;;;;;;;;;5013930;28;20034;-72
2023/06/24 10:22:31;;;;;;;4.05;1.95;;;;;;;;;;5013137;28;20049;-72
2023/06/24 10:25:00;;;;;;;7.80;2.42;;;;;;;;;;5012910;28;20386;-71
2023/06/24 10:27:27;;;;;;;4.97;2.10;;;;;;;;;;5001737;28;20038;-70
2023/06/24 10:29:53;;;;;;;6.10;2.47;;;;;;;;;;5012491;28;20076;-71
2023/06/24 10:32:20;;;;;;;5.78;2.15;;;;;;;;;;5012847;28;20038;-71
2023/06/24 10:34:46;;;;;;;8.15;2.22;;;;;;;;;;5011926;28;20044;-71
2023/06/24 10:37:24;;;;;;;5.97;2.40;;;;;;;;;;5012736;28;20038;-71
2023/06/24 10:40:00;;;;;;;4.32;2.22;;;;;;;;;;5012674;28;20030;-72
2023/06/24 10:42:25;;;;;;;8.55;2.60;;;;;;;;;;5012777;28;20044;-72
2023/06/24 10:44:51;;;;;;;5.47;2.33;;;;;;;;;;5014038;28;20124;-70
2023/06/24 10:47:17;;;;;;;4.10;2.38;;;;;;;;;;5015013;28;20092;-70
2023/06/24 10:49:42;;;;;;;6.03;2.42;;;;;;;;;;5014943;28;20064;-70
2023/06/24 10:52:09;;;;;;;4.25;1.90;;;;;;;;;;5011829;28;20041;-70
2023/06/24 10:54:38;;;;;;;4.95;2.00;;;;;;;;;;5011899;28;20033;-70
2023/06/24 10:57:04;;;;;;;7.10;2.00;;;;;;;;;;5013812;28;20033;-70
2023/06/24 10:59:50;;;;;;;5.15;1.77;;;;;;;;;;5012993;28;20080;-70
2023/06/24 11:02:17;;;;;;;5.57;2.30;;;;;;;;;;5009027;28;20403;-72
2023/06/24 11:04:52;;;;;;;5.10;2.40;;;;;;;;;;5013537;28;20386;-71
2023/06/24 11:07:23;;;;;;;7.72;2.10;;;;;;;;;;5012072;28;20060;-71
2023/06/24 11:09:56;;;;;;;6.75;2.22;;;;;;;;;;5011858;28;20053;-70
2023/06/24 11:12:26;;;;;;;4.90;2.30;;;;;;;;;;5011841;28;20040;-70
2023/06/24 11:14:56;;;;;;;5.95;1.98;;;;;;;;;;5011887;28;20041;-71
2023/06/24 11:17:22;;;;;;;4.97;2.00;;;;;;;;;;5013204;28;20037;-70
2023/06/24 11:19:47;;;;;;;5.03;2.20;;;;;;;;;;5005939;28;20398;-71
2023/06/24 11:22:12;;;;;;;4.97;2.28;;;;;;;;;;5013211;28;20462;-72
2023/06/24 11:24:39;;;;;;;5.97;2.05;;;;;;;;;;5013495;28;20034;-72
2023/06/24 11:27:05;;;;;;;6.75;2.60;;;;;;;;;;5006207;28;20038;-71
2023/06/24 11:29:31;;;;;;;7.75;2.33;;;;;;;;;;5013177;28;20041;-70
2023/06/24 11:31:57;;;;;;;7.18;2.53;;;;;;;;;;5013054;28;20034;-70
2023/06/24 11:34:22;;;;;;;7.32;2.50;;;;;;;;;;5013041;28;20434;-70
2023/06/24 11:36:48;;;;;;;7.70;2.78;;;;;;;;;;5013341;28;20474;-70
2023/06/24 11:39:40;;;;;;;6.25;2.50;;;;;;;;;;5011356;28;20037;-70
2023/06/24 11:42:09;;;;;;;4.03;2.30;;;;;;;;;;5010847;28;20053;-72
2023/06/24 11:44:35;;;;;;;4.53;2.30;;;;;;;;;;5012207;28;20046;-70
2023/06/24 11:47:08;;;;;;;5.43;2.17;;;;;;;;;;5012292;28;20038;-71
2023/06/24 11:49:54;;;;;;;7.40;2.30;;;;;;;;;;5012952;28;20054;-71
2023/06/24 11:52:32;;;;;;;5.40;2.28;;;;;;;;;;5012788;28;20485;-70
2023/06/24 11:54:57;;;;;;;5.22;2.33;;;;;;;;;;5013625;28;20096;-70
2023/06/24 11:57:52;;;;;;;4.78;2.33;;;;;;;;;;5013025;28;20041;-70
2023/06/24 12:00:23;;;;;;;5.15;2.03;;;;;;;;;;5012975;28;20104;-70
2023/06/24 12:02:57;;;;;;;5.20;1.92;;;;;;;;;;5015262;28;20113;-71
2023/06/24 12:05:30;;;;;;;5.47;2.20;;;;;;;;;;5016451;28;20038;-71
2023/06/24 12:08:00;;;;;;;5.10;1.75;;;;;;;;;;5016923;28;20117;-70
2023/06/24 12:10:27;;;;;;;6.32;2.10;;;;;;;;;;5013766;28;20056;-72
2023/06/24 12:12:52;;;;;;;3.55;1.83;;;;;;;;;;5013757;28;20042;-70
2023/06/24 12:15:17;;;;;;;3.30;1.90;;;;;;;;;;5016593;28;20041;-70
2023/06/24 12:17:43;;;;;;;5.47;2.10;;;;;;;;;;5013349;28;20037;-70
2023/06/24 12:20:09;;;;;;;4.00;1.80;;;;;;;;;;5016545;28;20048;-70
2023/06/24 12:22:35;;;;;;;2.63;1.60;;;;;;;;;;5016614;28;20029;-70
2023/06/24 12:25:00;;;;;;;6.10;2.10;;;;;;;;;;5016481;28;20037;-70
2023/06/24 12:27:25;;;;;;;3.65;1.85;;;;;;;;;;5016129;28;20041;-71
2023/06/24 12:29:51;;;;;;;4.63;1.60;;;;;;;;;;5016497;28;20083;-70
2023/06/24 12:32:16;;;;;;;5.38;1.77;;;;;;;;;;5015550;28;20038;-71
2023/06/24 12:34:41;;;;;;;4.53;1.77;;;;;;;;;;5006190;28;20046;-70
2023/06/24 12:37:07;;;;;;;3.95;1.48;;;;;;;;;;5014185;28;20030;-70
2023/06/24 12:39:32;;;;;;;4.82;1.88;;;;;;;;;;5011235;28;20390;-70
2023/06/24 12:41:57;;;;;;;3.45;1.60;;;;;;;;;;5014670;28;20494;-71
2023/06/24 12:44:23;;;;;;;4.32;1.80;;;;;;;;;;5007563;28;20493;-71
2023/06/24 12:46:48;;;;;;;6.72;1.60;;;;;;;;;;5011950;28;20045;-72
2023/06/24 12:49:13;;;;;;;3.78;1.58;;;;;;;;;;5013200;28;20045;-72
2023/06/24 12:51:39;;;;;;;5.88;1.75;;;;;;;;;;5013067;28;20030;-71
2023/06/24 12:54:04;;;;;;;4.03;1.75;;;;;;;;;;5011457;28;20129;-72
2023/06/24 12:56:29;;;;;;;5.03;1.83;;;;;;;;;;5014097;28;20401;-71
2023/06/24 12:58:55;;;;;;;7.53;1.88;;;;;;;;;;5015370;28;20076;-71
2023/06/24 13:01:20;;;;;;;4.75;1.50;;;;;;;;;;5015605;28;20136;-70
2023/06/24 13:03:45;;;;;;;2.92;1.40;;;;;;;;;;5014965;28;20501;-71
2023/06/24 13:06:10;;;;;;;2.97;1.20;;;;;;;;;;5015812;28;20428;-71
2023/06/24 13:08:36;;;;;;;2.85;1.40;;;;;;;;;;5014901;28;20393;-70
2023/06/24 13:11:01;;;;;;;4.85;1.65;;;;;;;;;;5014396;28;20038;-70
2023/06/24 13:13:27;;;;;;;2.30;1.38;;;;;;;;;;5014650;28;20034;-70
2023/06/24 13:15:52;;;;;;;3.45;1.75;;;;;;;;;;5012706;28;20037;-71
2023/06/24 13:18:19;;;;;;;2.47;1.30;;;;;;;;;;5015750;28;20437;-71
2023/06/24 13:20:45;;;;;;;2.53;1.50;;;;;;;;;;5015539;28;20042;-70
2023/06/24 13:23:10;;;;;;;4.10;1.70;;;;;;;;;;5013888;28;20433;-70
2023/06/24 13:25:36;;;;;;;3.80;1.55;;;;;;;;;;5011099;28;20437;-71
2023/06/24 13:28:02;;;;;;;4.25;1.60;;;;;;;;;;5014004;28;20116;-70
2023/06/24 13:30:28;;;;;;;3.63;1.67;;;;;;;;;;5014687;28;20128;-70
2023/06/24 13:32:53;;;;;;;4.40;1.67;;;;;;;;;;5015053;28;20040;-70
2023/06/24 13:35:18;;;;;;;3.60;1.70;;;;;;;;;;5014005;28;20515;-70
2023/06/24 13:37:44;;;;;;;2.50;1.50;;;;;;;;;;5014555;28;20144;-71
2023/06/24 13:40:10;;;;;;;2.92;1.50;;;;;;;;;;5011058;28;20467;-71
2023/06/24 13:42:35;;;;;;;5.22;1.80;;;;;;;;;;5014806;28;20042;-70
2023/06/24 13:45:01;;;;;;;3.58;1.70;;;;;;;;;;5012217;28;20034;-69
2023/06/24 13:47:26;;;;;;;4.68;1.52;;;;;;;;;;5014140;28;20057;-69
2023/06/24 13:49:52;;;;;;;4.38;1.80;;;;;;;;;;5011925;28;20504;-70
2023/06/24 13:52:17;;;;;;;5.25;1.80;;;;;;;;;;5013281;28;20046;-70
2023/06/24 13:54:43;;;;;;;3.50;1.48;;;;;;;;;;5011172;28;20041;-70
2023/06/24 13:57:08;;;;;;;3.63;1.52;;;;;;;;;;5011890;28;20053;-69
2023/06/24 13:59:33;;;;;;;5.60;1.77;;;;;;;;;;5014290;28;20050;-70
2023/06/24 14:01:59;;;;;;;2.97;1.65;;;;;;;;;;5014486;28;20041;-69
2023/06/24 14:04:24;;;;;;;3.92;1.80;;;;;;;;;;5014804;28;20041;-69
2023/06/24 14:06:50;;;;;;;6.20;1.75;;;;;;;;;;5010529;28;20042;-69
2023/06/24 14:09:15;;;;;;;3.30;1.50;;;;;;;;;;5013904;28;20025;-69
2023/06/24 14:11:40;;;;;;;4.55;1.67;;;;;;;;;;5014477;28;20425;-71
2023/06/24 14:14:06;;;;;;;3.25;1.58;;;;;;;;;;5014567;28;20046;-70
2023/06/24 14:16:31;;;;;;;2.75;1.60;;;;;;;;;;5012110;28;20044;-70
2023/06/24 14:18:56;;;;;;;3.90;1.58;;;;;;;;;;5014433;28;20040;-70
2023/06/24 14:21:22;;;;;;;3.85;1.85;;;;;;;;;;5014055;28;20038;-69
2023/06/24 14:23:47;;;;;;;2.40;1.70;;;;;;;;;;5013051;28;20390;-70
2023/06/24 14:26:13;;;;;;;3.30;1.67;;;;;;;;;;5012111;28;20468;-70
2023/06/24 14:28:38;;;;;;;4.53;1.92;;;;;;;;;;5011320;28;20049;-68
2023/06/24 14:31:04;;;;;;;3.53;1.90;;;;;;;;;;5005826;28;20074;-70
2023/06/24 14:33:29;;;;;;;3.83;1.80;;;;;;;;;;5014337;28;20577;-70
2023/06/24 14:35:54;;;;;;;4.03;1.92;;;;;;;;;;5012816;28;20046;-70
2023/06/24 14:38:20;;;;;;;3.20;1.70;;;;;;;;;;5012959;28;20045;-69
2023/06/24 14:40:46;;;;;;;3.72;1.73;;;;;;;;;;5008548;28;20505;-70